createdAt,value
2019-05-21T00:00:20.238Z,20.77
2019-05-21T00:06:40.017Z,19.30
2019-05-21T00:09:13.673Z,20.50
2019-05-21T00:11:47.431Z,21.03
2019-05-21T00:14:21.021Z,20.13
2019-05-21T00:16:54.687Z,20.93
2019-05-21T00:19:28.287Z,20.07
2019-05-21T00:22:01.917Z,20.90
2019-05-21T00:24:35.800Z,20.47
2019-05-21T00:27:09.460Z,20.50
2019-05-21T00:30:19.846Z,19.37
2019-05-21T00:33:30.091Z,19.33
2019-05-21T00:36:41.935Z,19.47
2019-05-21T00:39:51.741Z,18.47
2019-05-21T00:42:28.469Z,18.20
2019-05-21T00:45:02.203Z,19.87
2019-05-21T00:51:12.823Z,18.67
2019-05-21T00:53:46.437Z,18.87
2019-05-21T00:56:20.094Z,19.30
2019-05-21T00:58:53.683Z,19.07
2019-05-21T01:01:27.389Z,18.60
2019-05-21T01:07:47.269Z,17.73
2019-05-21T01:10:21.064Z,18.57
2019-05-21T01:12:54.681Z,18.50
2019-05-21T01:15:28.655Z,18.73
2019-05-21T01:18:02.409Z,19.83
2019-05-21T01:20:36.023Z,19.40
2019-05-21T01:23:09.653Z,18.50
2019-05-21T01:25:43.245Z,18.93
2019-05-21T01:28:16.999Z,18.83
2019-05-21T01:30:50.627Z,17.77
2019-05-21T01:33:24.249Z,18.03
2019-05-21T01:35:57.851Z,19.13
2019-05-21T01:38:31.476Z,19.17
2019-05-21T01:41:05.147Z,19.53
2019-05-21T01:43:38.740Z,19.00
2019-05-21T01:46:12.415Z,20.33
2019-05-21T01:48:46.067Z,18.90
2019-05-21T01:51:19.661Z,19.30
2019-05-21T01:53:53.296Z,19.73
2019-05-21T01:56:26.974Z,19.70
2019-05-21T01:59:00.609Z,20.40
2019-05-21T02:01:34.277Z,19.00
2019-05-21T02:04:08.051Z,19.13
2019-05-21T02:06:41.699Z,19.20
2019-05-21T02:09:15.343Z,19.20
2019-05-21T02:11:49.032Z,19.93
2019-05-21T02:14:22.699Z,19.57
2019-05-21T02:20:42.554Z,19.33
2019-05-21T02:23:16.416Z,20.53
2019-05-21T02:25:50.184Z,21.03
2019-05-21T02:28:23.787Z,21.27
2019-05-21T02:30:57.755Z,21.97
2019-05-21T02:37:17.494Z,21.40
2019-05-21T02:39:51.147Z,21.80
2019-05-21T02:42:24.797Z,22.30
2019-05-21T02:44:58.414Z,22.47
2019-05-21T02:47:32.011Z,22.57
2019-05-21T02:50:06.786Z,24.73
2019-05-21T02:52:40.551Z,24.67
2019-05-21T02:55:14.323Z,24.20
2019-05-21T02:57:47.981Z,24.17
2019-05-21T03:00:39.845Z,25.03
2019-05-21T03:03:15.148Z,25.00
2019-05-21T03:05:48.930Z,24.60
2019-05-21T03:08:22.586Z,26.43
2019-05-21T03:10:56.289Z,27.10
2019-05-21T03:13:29.978Z,26.73
2019-05-21T03:16:03.809Z,26.23
2019-05-21T03:18:37.477Z,27.00
2019-05-21T03:21:11.214Z,28.57
2019-05-21T03:23:44.803Z,27.40
2019-05-21T03:26:18.421Z,26.97
2019-05-21T03:28:52.116Z,27.80
2019-05-21T03:31:25.835Z,30.00
2019-05-21T03:33:59.521Z,28.63
2019-05-21T03:36:34.438Z,28.10
2019-05-21T03:39:09.102Z,26.47
2019-05-21T03:41:42.802Z,28.90
2019-05-21T03:44:16.445Z,29.17
2019-05-21T03:46:50.243Z,29.20
2019-05-21T03:49:23.955Z,28.90
2019-05-21T03:51:57.678Z,31.67
2019-05-21T03:54:31.259Z,32.37
2019-05-21T03:57:04.954Z,32.87
2019-05-21T03:59:38.632Z,33.00
2019-05-21T04:02:12.395Z,33.13
2019-05-21T04:04:46.041Z,32.53
2019-05-21T04:07:19.797Z,32.50
2019-05-21T04:09:53.468Z,31.53
2019-05-21T04:12:27.070Z,30.93
2019-05-21T04:15:11.450Z,29.67
2019-05-21T04:21:31.205Z,27.37
2019-05-21T04:24:08.616Z,26.57
2019-05-21T04:26:40.247Z,27.87
2019-05-21T04:29:13.861Z,27.23
2019-05-21T04:31:47.509Z,28.30
2019-05-21T04:37:57.988Z,27.77
2019-05-21T04:40:31.604Z,27.20
2019-05-21T04:43:05.211Z,28.23
2019-05-21T04:45:38.811Z,29.17
2019-05-21T04:48:12.545Z,29.20
2019-05-21T04:50:46.110Z,27.90
2019-05-21T04:53:19.829Z,28.40
2019-05-21T04:55:54.972Z,29.03
2019-05-21T04:58:28.600Z,25.90
2019-05-21T05:01:02.380Z,26.50
2019-05-21T05:03:36.100Z,26.60
2019-05-21T05:06:09.706Z,24.77
2019-05-21T05:08:43.472Z,26.07
2019-05-21T05:11:18.781Z,26.20
2019-05-21T05:13:52.382Z,26.47
2019-05-21T05:16:26.012Z,25.80
2019-05-21T05:19:00.164Z,26.13
2019-05-21T05:21:33.773Z,26.77
2019-05-21T05:24:07.420Z,27.60
2019-05-21T05:26:41.020Z,28.03
2019-05-21T05:29:14.701Z,29.17
2019-05-21T05:31:48.766Z,28.07
2019-05-21T05:34:22.453Z,28.93
2019-05-21T05:36:56.050Z,27.53
2019-05-21T05:39:29.814Z,27.57
2019-05-21T05:42:03.436Z,27.80
2019-05-21T05:44:38.273Z,27.77
2019-05-21T05:47:12.908Z,28.77
2019-05-21T05:49:48.301Z,27.83
2019-05-21T05:52:21.831Z,28.97
2019-05-21T05:54:55.435Z,30.53
2019-05-21T05:57:29.023Z,30.17
2019-05-21T06:00:02.702Z,28.87
2019-05-21T06:02:36.380Z,30.03
2019-05-21T06:05:10.909Z,28.70
2019-05-21T06:07:58.766Z,28.20
2019-05-21T06:10:20.210Z,29.43
2019-05-21T06:12:53.849Z,30.50
2019-05-21T06:15:27.718Z,30.00
2019-05-21T06:18:01.394Z,30.10
2019-05-21T06:20:35.075Z,29.23
2019-05-21T06:23:08.767Z,28.93
2019-05-21T06:25:42.434Z,26.53
2019-05-21T06:28:16.102Z,27.53
2019-05-21T06:30:49.883Z,27.07
2019-05-21T06:37:00.284Z,28.03
2019-05-21T06:39:33.941Z,27.20
2019-05-21T06:42:07.645Z,27.47
2019-05-21T06:44:41.674Z,28.53
2019-05-21T06:47:15.398Z,28.97
2019-05-21T06:53:35.302Z,31.77
2019-05-21T06:56:08.962Z,31.13
2019-05-21T06:58:42.603Z,31.50
2019-05-21T07:01:16.348Z,28.63
2019-05-21T07:03:50.070Z,32.10
2019-05-21T07:06:23.654Z,31.23
2019-05-21T07:08:57.306Z,31.20
2019-05-21T07:11:30.966Z,32.63
2019-05-21T07:14:04.937Z,30.63
2019-05-21T07:16:38.528Z,32.40
2019-05-21T07:19:12.294Z,32.33
2019-05-21T07:21:45.890Z,33.13
2019-05-21T07:24:19.652Z,33.33
2019-05-21T07:26:53.311Z,30.70
2019-05-21T07:29:26.947Z,30.50
2019-05-21T07:32:00.962Z,29.60
2019-05-21T07:34:34.789Z,28.07
2019-05-21T07:37:08.330Z,28.63
2019-05-21T07:39:41.955Z,27.60
2019-05-21T07:42:15.567Z,26.37
2019-05-21T07:44:49.256Z,23.90
2019-05-21T07:47:22.920Z,23.10
2019-05-21T07:49:56.660Z,23.17
2019-05-21T07:52:30.791Z,23.77
2019-05-21T07:55:05.523Z,23.07
2019-05-21T07:57:39.229Z,21.90
2019-05-21T08:00:13.227Z,21.63
2019-05-21T08:02:46.884Z,20.40
2019-05-21T08:05:20.482Z,23.33
2019-05-21T08:07:54.144Z,22.90
2019-05-21T08:10:27.742Z,20.27
2019-05-21T08:13:01.448Z,20.83
2019-05-21T08:15:35.433Z,18.42
2019-05-21T08:18:09.048Z,19.30
2019-05-21T08:20:42.647Z,20.75
2019-05-21T08:23:16.430Z,18.80
2019-05-21T08:25:50.136Z,18.53
2019-05-21T08:28:23.746Z,17.77
2019-05-21T08:30:57.446Z,18.65
2019-05-21T08:33:32.083Z,16.80
2019-05-21T08:36:06.218Z,17.27
2019-05-21T08:38:39.987Z,17.52
2019-05-21T08:41:13.703Z,17.67
2019-05-21T08:43:47.357Z,17.40
2019-05-21T08:46:21.188Z,15.63
2019-05-21T08:48:54.749Z,16.90
2019-05-21T08:51:28.446Z,13.77
2019-05-21T08:54:02.161Z,14.60
2019-05-21T08:56:35.856Z,14.65
2019-05-21T08:59:09.587Z,15.40
2019-05-21T09:01:43.289Z,14.73
2019-05-21T09:07:54.291Z,14.13
2019-05-21T09:10:28.892Z,14.35
2019-05-21T09:13:02.521Z,13.18
2019-05-21T09:15:36.125Z,9.28
2019-05-21T09:18:09.799Z,9.20
2019-05-21T09:24:29.705Z,10.40
2019-05-21T09:27:03.272Z,7.53
2019-05-21T09:29:36.905Z,6.92
2019-05-21T09:32:10.577Z,7.17
2019-05-21T09:34:48.759Z,5.78
2019-05-21T09:37:20.483Z,6.53
2019-05-21T09:39:54.548Z,7.72
2019-05-21T09:42:28.809Z,6.93
2019-05-21T09:45:02.495Z,9.37
2019-05-21T09:47:36.232Z,12.33
2019-05-21T09:50:10.636Z,13.03
2019-05-21T09:52:44.439Z,17.67
2019-05-21T09:55:18.149Z,29.03
2019-05-21T09:58:11.649Z,30.62
2019-05-21T10:00:49.518Z,31.02
2019-05-21T10:03:33.737Z,31.23
2019-05-21T10:06:07.771Z,31.97
2019-05-21T10:08:42.361Z,31.73
2019-05-21T10:11:15.975Z,30.47
2019-05-21T10:13:49.691Z,28.00
2019-05-21T10:16:23.288Z,28.00
2019-05-21T10:18:56.942Z,25.43
2019-05-21T10:21:30.735Z,25.97
2019-05-21T10:24:04.950Z,23.30
2019-05-21T10:26:39.636Z,23.13
2019-05-21T10:29:14.235Z,23.17
2019-05-21T10:31:47.967Z,19.43
2019-05-21T10:34:21.609Z,19.73
2019-05-21T10:36:55.306Z,17.70
2019-05-21T10:39:29.090Z,15.97
2019-05-21T10:42:03.886Z,16.20
2019-05-21T10:44:37.651Z,14.23
2019-05-21T10:47:15.936Z,15.07
2019-05-21T10:53:14.901Z,13.40
2019-05-21T10:55:48.657Z,12.80
2019-05-21T10:58:22.382Z,11.73
2019-05-21T11:01:00.438Z,13.20
2019-05-21T11:03:41.686Z,13.10
2019-05-21T11:09:52.711Z,12.20
2019-05-21T11:12:26.373Z,11.00
2019-05-21T11:15:00.126Z,10.43
2019-05-21T11:17:49.644Z,11.00
2019-05-21T11:20:10.231Z,10.83
2019-05-21T11:22:43.851Z,10.00
2019-05-21T11:25:17.529Z,7.87
2019-05-21T11:27:51.276Z,7.30
2019-05-21T11:30:25.109Z,6.83
2019-05-21T11:32:58.830Z,6.10
2019-05-21T11:35:36.018Z,5.93
2019-05-21T11:38:08.926Z,6.17
2019-05-21T11:40:42.683Z,5.93
2019-05-21T11:43:16.429Z,5.37
2019-05-21T11:45:50.070Z,5.27
2019-05-21T11:48:23.844Z,5.90
2019-05-21T11:50:57.580Z,5.60
2019-05-21T11:53:32.022Z,5.43
2019-05-21T11:56:06.301Z,5.47
2019-05-21T11:58:40.173Z,5.60
2019-05-21T12:01:13.951Z,5.87
2019-05-21T12:03:47.598Z,6.10
2019-05-21T12:06:21.384Z,6.53
2019-05-21T12:08:57.084Z,7.00
2019-05-21T12:11:30.266Z,7.00
2019-05-21T12:14:05.434Z,6.25
2019-05-21T12:16:39.037Z,6.87
2019-05-21T12:19:13.104Z,7.20
2019-05-21T12:21:47.015Z,6.00
2019-05-21T12:24:20.757Z,5.45
2019-05-21T12:26:54.473Z,5.50
2019-05-21T12:29:28.168Z,4.87
2019-05-21T12:32:01.758Z,5.30
2019-05-21T12:34:38.772Z,5.70
2019-05-21T12:37:10.825Z,4.50
2019-05-21T12:39:44.441Z,4.50
2019-05-21T12:42:18.074Z,4.17
2019-05-21T12:44:51.677Z,4.40
2019-05-21T12:47:25.683Z,3.92
2019-05-21T12:49:59.583Z,4.30
2019-05-21T12:52:33.891Z,3.72
2019-05-21T12:55:09.143Z,4.40
2019-05-21T12:57:42.729Z,4.20
2019-05-21T13:00:17.150Z,4.47
2019-05-21T13:02:50.787Z,4.87
2019-05-21T13:05:24.397Z,4.50
2019-05-21T13:07:58.039Z,4.63
2019-05-21T13:10:31.794Z,3.90
2019-05-21T13:13:05.844Z,4.57
2019-05-21T13:15:39.486Z,4.47
2019-05-21T13:18:13.071Z,4.00
2019-05-21T13:24:24.189Z,4.00
2019-05-21T13:26:57.784Z,3.50
2019-05-21T13:29:31.617Z,3.17
2019-05-21T13:32:05.357Z,3.42
2019-05-21T13:34:38.987Z,3.65
2019-05-21T13:40:59.516Z,4.43
2019-05-21T13:43:33.300Z,3.83
2019-05-21T13:46:07.152Z,3.87
2019-05-21T13:48:40.734Z,4.07
2019-05-21T13:51:14.434Z,4.13
2019-05-21T13:53:48.127Z,3.80
2019-05-21T13:56:21.864Z,4.33
2019-05-21T13:58:55.825Z,3.83
2019-05-21T14:01:39.986Z,4.53
2019-05-21T14:04:05.072Z,4.50
2019-05-21T14:06:38.860Z,4.47
2019-05-21T14:09:12.784Z,4.80
2019-05-21T14:11:46.871Z,4.50
2019-05-21T14:14:20.597Z,4.03
2019-05-21T14:16:54.173Z,4.45
2019-05-21T14:19:27.750Z,4.97
2019-05-21T14:22:01.415Z,4.83
2019-05-21T14:24:35.083Z,4.70
2019-05-21T14:27:08.802Z,5.20
2019-05-21T14:29:42.450Z,4.50
2019-05-21T14:32:16.234Z,4.55
2019-05-21T14:35:00.788Z,4.50
2019-05-21T14:37:25.415Z,4.87
2019-05-21T14:39:59.081Z,4.60
2019-05-21T14:42:33.776Z,4.78
2019-05-21T14:45:08.119Z,5.28
2019-05-21T14:47:41.782Z,5.28
2019-05-21T14:50:15.628Z,4.95
2019-05-21T14:52:52.316Z,4.75
2019-05-21T14:55:25.696Z,4.62
2019-05-21T14:57:59.395Z,5.15
2019-05-21T15:00:36.094Z,5.60
2019-05-21T15:03:24.295Z,5.58
2019-05-21T15:05:45.106Z,5.03
2019-05-21T15:08:18.732Z,5.20
2019-05-21T15:10:53.368Z,5.30
2019-05-21T15:13:26.999Z,5.75
2019-05-21T15:16:00.599Z,5.47
2019-05-21T15:18:34.489Z,5.63
2019-05-21T15:21:10.236Z,5.50
2019-05-21T15:23:45.094Z,6.05
2019-05-21T15:26:19.689Z,6.17
2019-05-21T15:28:53.628Z,5.30
2019-05-21T15:31:27.426Z,5.60
2019-05-21T15:34:02.030Z,5.45
2019-05-21T15:40:13.082Z,6.40
2019-05-21T15:42:51.910Z,5.93
2019-05-21T15:45:22.210Z,6.03
2019-05-21T15:47:56.011Z,6.20
2019-05-21T15:50:29.585Z,5.60
2019-05-21T15:56:49.417Z,7.00
2019-05-21T15:59:23.117Z,7.17
2019-05-21T16:01:56.723Z,7.30
2019-05-21T16:04:30.382Z,7.90
2019-05-21T16:07:04.271Z,7.57
2019-05-21T16:09:38.225Z,7.00
2019-05-21T16:12:11.861Z,6.93
2019-05-21T16:14:45.734Z,7.70
2019-05-21T16:17:20.446Z,6.77
2019-05-21T16:19:54.130Z,7.17
2019-05-21T16:22:27.756Z,6.70
2019-05-21T16:25:01.419Z,8.03
2019-05-21T16:27:35.016Z,6.73
2019-05-21T16:30:09.476Z,7.37
2019-05-21T16:32:43.288Z,6.57
2019-05-21T16:35:17.233Z,6.77
2019-05-21T16:37:50.982Z,6.53
2019-05-21T16:40:24.940Z,6.57
2019-05-21T16:42:58.578Z,6.20
2019-05-21T16:45:32.588Z,6.37
2019-05-21T16:48:06.592Z,6.90
2019-05-21T16:50:40.337Z,6.37
2019-05-21T16:53:14.129Z,6.10
2019-05-21T16:55:47.853Z,6.37
2019-05-21T16:58:21.556Z,6.40
2019-05-21T17:00:55.148Z,6.80
2019-05-21T17:03:28.856Z,6.07
2019-05-21T17:06:02.513Z,6.42
2019-05-21T17:08:36.525Z,6.53
2019-05-21T17:11:10.202Z,6.20
2019-05-21T17:13:43.908Z,7.00
2019-05-21T17:16:17.519Z,6.80
2019-05-21T17:18:51.286Z,6.33
2019-05-21T17:21:25.014Z,6.50
2019-05-21T17:23:58.716Z,6.87
2019-05-21T17:26:32.533Z,6.37
2019-05-21T17:29:06.220Z,6.53
2019-05-21T17:31:39.822Z,6.53
2019-05-21T17:34:13.595Z,6.90
2019-05-21T17:36:47.174Z,6.87
2019-05-21T17:39:20.798Z,6.73
2019-05-21T17:41:54.767Z,7.40
2019-05-21T17:44:32.602Z,6.70
2019-05-21T17:47:06.365Z,6.50
2019-05-21T17:49:40.017Z,7.00
2019-05-21T17:52:14.691Z,6.00
2019-05-21T17:54:56.631Z,6.77
2019-05-21T17:57:24.124Z,6.67
2019-05-21T17:59:57.734Z,7.00
2019-05-21T18:02:31.419Z,7.03
2019-05-21T18:05:08.529Z,8.03
2019-05-21T18:11:19.096Z,7.80
2019-05-21T18:13:52.824Z,8.00
2019-05-21T18:16:26.561Z,8.40
2019-05-21T18:19:00.709Z,7.70
2019-05-21T18:21:35.800Z,10.50
2019-05-21T18:27:46.741Z,8.43
2019-05-21T18:30:20.798Z,9.07
2019-05-21T18:32:54.752Z,8.77
2019-05-21T18:35:28.453Z,8.50
2019-05-21T18:38:02.137Z,9.30
2019-05-21T18:40:35.782Z,9.13
2019-05-21T18:43:09.557Z,9.30
2019-05-21T18:45:43.265Z,8.83
2019-05-21T18:48:16.870Z,9.57
2019-05-21T18:50:50.550Z,8.70
2019-05-21T18:53:24.211Z,8.37
2019-05-21T18:55:58.799Z,9.10
2019-05-21T18:58:32.845Z,9.33
2019-05-21T19:01:06.731Z,8.97
2019-05-21T19:03:40.383Z,9.50
2019-05-21T19:06:14.160Z,9.07
2019-05-21T19:08:47.810Z,9.30
2019-05-21T19:11:21.595Z,10.20
2019-05-21T19:13:55.427Z,10.03
2019-05-21T19:16:30.048Z,9.70
2019-05-21T19:19:03.917Z,9.63
2019-05-21T19:21:37.619Z,9.80
2019-05-21T19:24:11.253Z,10.50
2019-05-21T19:26:44.979Z,10.27
2019-05-21T19:29:18.629Z,9.63
2019-05-21T19:31:52.601Z,10.77
2019-05-21T19:34:26.302Z,10.77
2019-05-21T19:36:59.906Z,10.57
2019-05-21T19:39:33.780Z,10.67
2019-05-21T19:42:07.873Z,10.73
2019-05-21T19:44:41.648Z,10.37
2019-05-21T19:47:15.270Z,10.70
2019-05-21T19:49:49.000Z,11.10
2019-05-21T19:52:22.660Z,15.27
2019-05-21T19:54:56.284Z,20.95
2019-05-21T19:57:31.015Z,22.97
2019-05-21T20:00:07.314Z,20.47
2019-05-21T20:02:40.959Z,19.97
2019-05-21T20:05:14.746Z,16.80
2019-05-21T20:07:48.611Z,14.73
2019-05-21T20:10:22.683Z,14.23
2019-05-21T20:12:56.708Z,12.50
2019-05-21T20:15:30.499Z,12.03
2019-05-21T20:18:07.444Z,11.67
2019-05-21T20:20:40.265Z,11.23
2019-05-21T20:23:15.648Z,11.63
2019-05-21T20:25:56.447Z,12.03
2019-05-21T20:28:26.753Z,11.13
2019-05-21T20:31:00.610Z,10.43
2019-05-21T20:33:35.234Z,10.47
2019-05-21T20:36:09.132Z,11.07
2019-05-21T20:42:31.779Z,11.33
2019-05-21T20:45:08.902Z,10.90
2019-05-21T20:47:44.528Z,10.60
2019-05-21T20:50:22.288Z,11.07
2019-05-21T20:52:56.683Z,11.20
2019-05-21T20:59:07.577Z,9.93
2019-05-21T21:01:42.367Z,10.97
2019-05-21T21:04:17.023Z,10.43
2019-05-21T21:06:50.796Z,10.47
2019-05-21T21:09:24.641Z,11.17
2019-05-21T21:11:58.634Z,11.40
2019-05-21T21:14:32.301Z,11.23
2019-05-21T21:17:06.688Z,10.97
2019-05-21T21:19:40.779Z,11.73
2019-05-21T21:22:14.551Z,11.47
2019-05-21T21:24:49.118Z,11.47
2019-05-21T21:27:26.978Z,11.33
2019-05-21T21:30:00.835Z,11.90
2019-05-21T21:32:34.767Z,12.63
2019-05-21T21:35:10.372Z,12.70
2019-05-21T21:37:44.981Z,11.67
2019-05-21T21:40:18.779Z,12.30
2019-05-21T21:42:52.536Z,11.07
2019-05-21T21:45:26.505Z,11.53
2019-05-21T21:48:01.248Z,10.67
2019-05-21T21:50:36.606Z,10.43
2019-05-21T21:53:10.951Z,10.30
2019-05-21T21:55:44.647Z,10.73
2019-05-21T21:58:18.388Z,10.60
2019-05-21T22:00:59.263Z,10.40
2019-05-21T22:03:35.766Z,11.93
2019-05-21T22:06:10.315Z,11.73
2019-05-21T22:08:43.972Z,10.83
2019-05-21T22:11:18.453Z,11.83
2019-05-21T22:13:52.558Z,12.23
2019-05-21T22:16:26.459Z,11.83
2019-05-21T22:19:00.162Z,12.13
2019-05-21T22:21:34.279Z,11.87
2019-05-21T22:24:09.144Z,12.53
2019-05-21T22:26:42.838Z,12.33
2019-05-21T22:29:16.643Z,12.20
2019-05-21T22:31:50.309Z,11.97
2019-05-21T22:34:24.538Z,12.63
2019-05-21T22:36:58.265Z,12.80
2019-05-21T22:43:08.682Z,12.37
2019-05-21T22:45:42.869Z,13.03
2019-05-21T22:48:16.508Z,12.43
2019-05-21T22:50:50.418Z,12.53
2019-05-21T22:53:24.457Z,13.07
2019-05-21T22:59:44.466Z,12.47
2019-05-21T23:02:19.883Z,12.90
2019-05-21T23:04:54.057Z,13.47
2019-05-21T23:07:27.648Z,13.50
2019-05-21T23:10:01.471Z,14.27
2019-05-21T23:12:36.063Z,14.13
2019-05-21T23:15:23.780Z,14.17
2019-05-21T23:17:45.846Z,13.63
2019-05-21T23:20:21.345Z,13.60
2019-05-21T23:22:56.770Z,13.87
2019-05-21T23:25:31.304Z,13.90
2019-05-21T23:28:06.180Z,14.03
2019-05-21T23:30:40.868Z,13.87
2019-05-21T23:33:15.329Z,13.87
2019-05-21T23:35:49.113Z,14.37
2019-05-21T23:38:23.735Z,14.93
2019-05-21T23:40:58.363Z,14.83
2019-05-21T23:43:32.650Z,14.47
2019-05-21T23:46:07.462Z,15.00
2019-05-21T23:48:42.147Z,15.07
2019-05-21T23:51:15.804Z,15.37
2019-05-21T23:53:49.788Z,14.93
2019-05-21T23:56:23.684Z,14.60
2019-05-21T23:58:57.342Z,15.70
